createdAt,value
2023-01-17T00:02:05.931Z,91.85
2023-01-17T00:04:50.974Z,91.61
2023-01-17T00:07:37.835Z,91.39
2023-01-17T00:10:12.149Z,91.16
2023-01-17T00:12:39.342Z,90.12
2023-01-17T00:15:07.248Z,89.03
2023-01-17T00:17:33.723Z,88.80
2023-01-17T00:20:20.255Z,88.55
2023-01-17T00:23:05.615Z,87.52
2023-01-17T00:25:55.261Z,86.99
2023-01-17T00:28:22.130Z,86.82
2023-01-17T00:30:48.529Z,86.46
2023-01-17T00:33:14.895Z,86.61
2023-01-17T00:35:41.481Z,85.87
2023-01-17T00:38:13.091Z,85.78
2023-01-17T00:40:42.452Z,85.61
2023-01-17T00:43:28.781Z,85.46
2023-01-17T00:46:14.347Z,85.44
2023-01-17T00:49:02.273Z,86.06
2023-01-17T00:51:49.050Z,87.03
2023-01-17T00:54:34.576Z,85.99
2023-01-17T00:57:20.399Z,86.85
2023-01-17T01:00:05.644Z,86.21
2023-01-17T01:02:50.950Z,85.13
2023-01-17T01:05:35.848Z,85.35
2023-01-17T01:08:21.887Z,85.07
2023-01-17T01:11:07.792Z,84.99
2023-01-17T01:13:53.302Z,84.55
2023-01-17T01:16:38.537Z,84.44
2023-01-17T01:19:24.344Z,83.77
2023-01-17T01:22:09.265Z,83.64
2023-01-17T01:24:54.014Z,84.07
2023-01-17T01:27:39.075Z,84.22
2023-01-17T01:30:24.471Z,84.81
2023-01-17T01:33:09.367Z,81.75
2023-01-17T01:35:36.925Z,81.31
2023-01-17T01:38:03.920Z,80.62
2023-01-17T01:40:30.349Z,80.64
2023-01-17T01:43:00.224Z,81.21
2023-01-17T01:45:29.700Z,80.80
2023-01-17T01:48:20.764Z,80.55
2023-01-17T01:50:50.297Z,79.98
2023-01-17T01:53:20.102Z,79.27
2023-01-17T01:55:49.286Z,79.19
2023-01-17T01:58:22.815Z,78.48
2023-01-17T02:00:49.330Z,78.00
2023-01-17T02:03:21.430Z,78.64
2023-01-17T02:05:48.207Z,77.72
2023-01-17T02:08:17.066Z,77.86
2023-01-17T02:10:46.867Z,76.52
2023-01-17T02:13:16.033Z,76.95
2023-01-17T02:15:57.822Z,77.97
2023-01-17T02:18:30.790Z,77.56
2023-01-17T02:21:14.254Z,77.08
2023-01-17T02:23:46.567Z,76.81
2023-01-17T02:26:16.033Z,78.15
2023-01-17T02:29:06.987Z,77.80
2023-01-17T02:31:37.055Z,78.13
2023-01-17T02:34:10.646Z,78.51
2023-01-17T02:36:44.480Z,78.87
2023-01-17T02:39:20.602Z,79.51
2023-01-17T02:42:04.619Z,78.09
2023-01-17T02:44:40.853Z,79.15
2023-01-17T02:47:30.089Z,78.20
2023-01-17T02:50:03.461Z,78.44
2023-01-17T02:52:36.015Z,78.88
2023-01-17T02:55:23.844Z,78.79
2023-01-17T02:58:13.303Z,78.66
2023-01-17T03:01:03.100Z,78.13
2023-01-17T03:03:50.218Z,78.48
2023-01-17T03:06:26.777Z,77.59
2023-01-17T03:08:53.969Z,77.79
2023-01-17T03:11:20.659Z,77.12
2023-01-17T03:13:47.111Z,77.13
2023-01-17T03:16:21.810Z,77.12
2023-01-17T03:18:49.215Z,76.68
2023-01-17T03:21:15.676Z,75.82
2023-01-17T03:23:42.196Z,76.28
2023-01-17T03:26:08.631Z,74.84
2023-01-17T03:28:35.049Z,74.58
2023-01-17T03:31:01.515Z,75.62
2023-01-17T03:33:27.932Z,74.89
2023-01-17T03:35:57.966Z,74.41
2023-01-17T03:38:28.770Z,75.17
2023-01-17T03:40:55.400Z,75.31
2023-01-17T03:43:21.788Z,75.18
2023-01-17T03:45:54.451Z,75.74
2023-01-17T03:48:21.684Z,75.19
2023-01-17T03:50:51.469Z,75.21
2023-01-17T03:53:17.884Z,76.04
2023-01-17T03:55:47.566Z,75.88
2023-01-17T03:58:14.173Z,75.46
2023-01-17T04:00:40.557Z,74.92
2023-01-17T04:03:06.967Z,75.24
2023-01-17T04:05:33.406Z,75.31
2023-01-17T04:07:59.793Z,76.36
2023-01-17T04:10:26.331Z,74.52
2023-01-17T04:12:52.749Z,75.43
2023-01-17T04:15:19.131Z,73.86
2023-01-17T04:17:45.540Z,74.05
2023-01-17T04:20:32.835Z,74.17
2023-01-17T04:22:59.464Z,73.50
2023-01-17T04:25:26.040Z,73.39
2023-01-17T04:27:53.788Z,74.10
2023-01-17T04:30:20.255Z,74.83
2023-01-17T04:32:46.826Z,73.02
2023-01-17T04:35:13.340Z,72.71
2023-01-17T04:37:39.878Z,72.97
2023-01-17T04:40:07.189Z,74.09
2023-01-17T04:42:33.614Z,73.93
2023-01-17T04:45:00.037Z,73.69
2023-01-17T04:47:26.410Z,74.40
2023-01-17T04:49:53.572Z,73.50
2023-01-17T04:52:20.658Z,74.11
2023-01-17T04:54:49.534Z,74.76
2023-01-17T04:57:17.247Z,74.21
2023-01-17T04:59:44.301Z,75.20
2023-01-17T05:02:11.105Z,75.88
2023-01-17T05:04:37.817Z,75.78
2023-01-17T05:07:04.725Z,76.31
2023-01-17T05:09:31.209Z,76.96
2023-01-17T05:11:57.720Z,77.41
2023-01-17T05:14:26.300Z,77.65
2023-01-17T05:16:57.057Z,78.40
2023-01-17T05:19:24.669Z,77.61
2023-01-17T05:21:51.292Z,77.41
2023-01-17T05:24:18.776Z,78.03
2023-01-17T05:26:46.040Z,78.42
2023-01-17T05:29:12.493Z,78.25
2023-01-17T05:31:39.004Z,78.52
2023-01-17T05:34:05.391Z,78.41
2023-01-17T05:36:31.819Z,79.85
2023-01-17T05:38:59.241Z,79.65
2023-01-17T05:41:25.685Z,79.08
2023-01-17T05:43:52.068Z,79.92
2023-01-17T05:46:18.530Z,80.20
2023-01-17T05:48:45.002Z,80.76
2023-01-17T05:51:11.610Z,81.60
2023-01-17T05:53:38.008Z,81.49
2023-01-17T05:56:04.657Z,81.54
2023-01-17T05:58:31.072Z,82.62
2023-01-17T06:00:57.498Z,82.53
2023-01-17T06:03:24.021Z,82.84
2023-01-17T06:05:50.477Z,82.65
2023-01-17T06:08:17.056Z,83.27
2023-01-17T06:10:43.481Z,83.28
2023-01-17T06:13:12.626Z,84.26
2023-01-17T06:15:39.639Z,84.78
2023-01-17T06:18:08.645Z,85.99
2023-01-17T06:20:35.696Z,87.22
2023-01-17T06:23:04.426Z,88.36
2023-01-17T06:25:36.470Z,88.29
2023-01-17T06:28:03.031Z,89.54
2023-01-17T06:30:29.453Z,89.66
2023-01-17T06:32:55.878Z,89.76
2023-01-17T06:35:22.900Z,89.64
2023-01-17T06:37:55.570Z,89.01
2023-01-17T06:40:22.443Z,89.72
2023-01-17T06:42:48.871Z,89.67
2023-01-17T06:45:15.295Z,89.57
2023-01-17T06:47:41.820Z,88.93
2023-01-17T06:50:11.126Z,88.88
2023-01-17T06:52:37.647Z,88.76
2023-01-17T06:55:04.587Z,88.45
2023-01-17T06:57:31.051Z,87.66
2023-01-17T06:59:57.514Z,87.46
2023-01-17T07:02:24.150Z,87.79
2023-01-17T07:04:50.605Z,87.76
2023-01-17T07:07:17.204Z,87.39
2023-01-17T07:09:44.081Z,87.62
2023-01-17T07:12:10.755Z,88.19
2023-01-17T07:14:37.355Z,87.45
2023-01-17T07:17:04.271Z,87.74
2023-01-17T07:19:30.705Z,88.20
2023-01-17T07:21:57.189Z,88.32
2023-01-17T07:24:23.616Z,88.44
2023-01-17T07:26:51.584Z,88.89
2023-01-17T07:29:18.436Z,89.78
2023-01-17T07:31:44.897Z,90.07
2023-01-17T07:34:11.542Z,90.60
2023-01-17T07:36:38.042Z,90.79
2023-01-17T07:39:06.314Z,90.79
2023-01-17T07:41:35.645Z,90.90
2023-01-17T07:44:02.052Z,91.08
2023-01-17T07:46:28.448Z,91.45
2023-01-17T07:48:54.863Z,91.09
2023-01-17T07:51:21.306Z,90.52
2023-01-17T07:53:47.712Z,90.99
2023-01-17T07:56:14.101Z,89.97
2023-01-17T07:58:40.556Z,88.80
2023-01-17T08:01:09.540Z,90.34
2023-01-17T08:03:39.858Z,88.42
2023-01-17T08:06:13.503Z,87.36
2023-01-17T08:08:39.932Z,85.03
2023-01-17T08:11:06.320Z,82.29
2023-01-17T08:13:32.736Z,80.72
2023-01-17T08:16:02.296Z,77.82
2023-01-17T08:18:29.780Z,76.65
2023-01-17T08:20:56.405Z,75.77
2023-01-17T08:23:23.043Z,75.65
2023-01-17T08:25:49.608Z,73.57
2023-01-17T08:28:16.022Z,72.46
2023-01-17T08:30:42.390Z,72.50
2023-01-17T08:33:08.781Z,72.69
2023-01-17T08:35:36.343Z,72.34
2023-01-17T08:38:04.877Z,72.49
2023-01-17T08:40:32.735Z,72.97
2023-01-17T08:43:00.896Z,74.64
2023-01-17T08:45:27.879Z,75.37
2023-01-17T08:47:54.319Z,76.49
2023-01-17T08:50:20.807Z,76.67
2023-01-17T08:52:48.693Z,76.22
2023-01-17T08:55:16.101Z,75.45
2023-01-17T08:57:42.581Z,76.72
2023-01-17T09:00:09.618Z,76.42
2023-01-17T09:02:36.347Z,74.53
2023-01-17T09:05:02.880Z,73.00
2023-01-17T09:07:29.312Z,73.45
2023-01-17T09:09:55.787Z,74.44
2023-01-17T09:12:22.372Z,74.91
2023-01-17T09:14:49.309Z,75.49
2023-01-17T09:17:16.081Z,74.76
2023-01-17T09:19:46.579Z,75.33
2023-01-17T09:22:15.884Z,73.53
2023-01-17T09:24:42.528Z,71.86
2023-01-17T09:27:09.011Z,70.12
2023-01-17T09:29:35.527Z,68.83
2023-01-17T09:32:02.120Z,68.21
2023-01-17T09:34:28.560Z,69.22
2023-01-17T09:36:56.950Z,69.73
2023-01-17T09:39:23.489Z,70.93
2023-01-17T09:42:02.052Z,72.10
2023-01-17T09:44:42.728Z,71.83
2023-01-17T09:47:24.665Z,71.89
2023-01-17T09:49:53.135Z,72.10
2023-01-17T09:52:23.355Z,69.93
2023-01-17T09:54:50.984Z,70.10
2023-01-17T09:57:26.309Z,67.77
2023-01-17T10:00:26.718Z,67.32
2023-01-17T10:03:27.291Z,66.33
2023-01-17T10:06:05.506Z,65.04
2023-01-17T10:08:57.934Z,64.36
2023-01-17T10:11:37.530Z,64.88
2023-01-17T10:14:21.009Z,65.48
2023-01-17T10:17:38.726Z,66.12
2023-01-17T10:20:34.007Z,64.33
2023-01-17T10:23:31.905Z,63.60
2023-01-17T10:26:03.111Z,64.10
2023-01-17T10:28:40.405Z,60.79
2023-01-17T10:31:26.255Z,61.58
2023-01-17T10:34:03.636Z,60.90
2023-01-17T10:36:34.673Z,61.14
2023-01-17T10:39:12.738Z,61.59
2023-01-17T10:41:50.780Z,60.45
2023-01-17T10:44:49.755Z,62.11
2023-01-17T10:47:24.534Z,61.65
2023-01-17T10:49:53.669Z,59.60
2023-01-17T10:52:38.971Z,61.43
2023-01-17T10:55:30.413Z,60.83
2023-01-17T10:57:58.153Z,61.93
2023-01-17T11:00:59.677Z,60.46
2023-01-17T11:03:27.464Z,59.36
2023-01-17T11:06:16.177Z,59.96
2023-01-17T11:08:54.263Z,59.81
2023-01-17T11:11:24.638Z,59.07
2023-01-17T11:13:53.552Z,58.92
2023-01-17T11:16:26.697Z,58.30
2023-01-17T11:19:18.726Z,57.96
2023-01-17T11:21:57.529Z,56.35
2023-01-17T11:24:52.551Z,56.46
2023-01-17T11:27:28.122Z,57.29
2023-01-17T11:30:16.496Z,56.82
2023-01-17T11:33:06.058Z,57.04
2023-01-17T11:35:35.038Z,55.99
2023-01-17T11:38:10.767Z,56.57
2023-01-17T11:40:40.936Z,56.76
2023-01-17T11:43:26.492Z,56.39
2023-01-17T11:46:18.610Z,55.99
2023-01-17T11:48:56.126Z,54.89
2023-01-17T11:51:28.397Z,54.10
2023-01-17T11:54:03.376Z,53.98
2023-01-17T11:56:33.508Z,54.01
2023-01-17T11:59:18.462Z,53.19
2023-01-17T12:01:55.692Z,54.75
2023-01-17T12:04:29.740Z,53.24
2023-01-17T12:07:19.243Z,54.17
2023-01-17T12:10:18.977Z,52.75
2023-01-17T12:13:25.425Z,54.05
2023-01-17T12:16:00.001Z,54.29
2023-01-17T12:18:45.688Z,54.39
2023-01-17T12:21:20.508Z,55.17
2023-01-17T12:24:05.715Z,54.88
2023-01-17T12:26:45.663Z,55.70
2023-01-17T12:29:27.503Z,57.31
2023-01-17T12:32:26.028Z,56.80
2023-01-17T12:35:15.215Z,57.15
2023-01-17T12:37:44.798Z,57.18
2023-01-17T12:40:17.141Z,57.67
2023-01-17T12:42:51.868Z,58.41
2023-01-17T12:45:32.053Z,58.77
2023-01-17T12:48:05.263Z,59.45
2023-01-17T12:50:43.137Z,60.00
2023-01-17T12:53:37.886Z,60.15
2023-01-17T12:56:30.431Z,58.75
2023-01-17T12:59:13.065Z,58.25
2023-01-17T13:01:40.047Z,59.02
2023-01-17T13:04:57.022Z,59.22
2023-01-17T13:07:47.579Z,56.80
2023-01-17T13:10:31.060Z,58.54
2023-01-17T13:13:13.220Z,57.01
2023-01-17T13:15:41.635Z,55.07
2023-01-17T13:18:17.292Z,56.24
2023-01-17T13:20:59.352Z,56.10
2023-01-17T13:23:37.477Z,56.58
2023-01-17T13:26:14.779Z,56.89
2023-01-17T13:29:35.241Z,57.09
2023-01-17T13:32:04.399Z,56.96
2023-01-17T13:34:49.109Z,57.79
2023-01-17T13:37:53.296Z,57.97
2023-01-17T13:40:31.704Z,57.49
2023-01-17T13:43:01.113Z,57.97
2023-01-17T13:45:31.271Z,57.21
2023-01-17T13:48:40.800Z,58.62
2023-01-17T13:51:11.045Z,59.12
2023-01-17T13:53:40.549Z,59.61
2023-01-17T13:56:16.024Z,60.53
2023-01-17T13:59:03.621Z,59.21
2023-01-17T14:01:34.747Z,59.60
2023-01-17T14:04:04.074Z,58.50
2023-01-17T14:06:44.208Z,55.94
2023-01-17T14:09:22.158Z,56.58
2023-01-17T14:12:05.958Z,56.87
2023-01-17T14:14:37.282Z,56.02
2023-01-17T14:17:27.988Z,56.37
2023-01-17T14:20:26.101Z,56.05
2023-01-17T14:22:55.941Z,55.29
2023-01-17T14:25:29.940Z,55.03
2023-01-17T14:28:07.811Z,55.04
2023-01-17T14:30:36.831Z,54.80
2023-01-17T14:33:04.746Z,55.82
2023-01-17T14:35:49.509Z,55.33
2023-01-17T14:38:22.997Z,56.40
2023-01-17T14:40:53.927Z,56.05
2023-01-17T14:43:23.558Z,56.50
2023-01-17T14:45:57.740Z,57.21
2023-01-17T14:48:24.934Z,57.75
2023-01-17T14:50:54.184Z,58.07
2023-01-17T14:53:27.901Z,60.02
2023-01-17T14:55:56.578Z,59.75
2023-01-17T14:58:23.034Z,61.10
2023-01-17T15:00:56.648Z,61.31
2023-01-17T15:03:23.446Z,61.86
2023-01-17T15:05:52.733Z,62.32
2023-01-17T15:08:22.323Z,62.38
2023-01-17T15:10:58.746Z,64.35
2023-01-17T15:13:43.936Z,64.94
2023-01-17T15:16:20.682Z,66.17
2023-01-17T15:18:47.803Z,65.94
2023-01-17T15:21:21.171Z,66.13
2023-01-17T15:23:54.968Z,65.84
2023-01-17T15:26:24.644Z,66.45
2023-01-17T15:28:53.317Z,66.60
2023-01-17T15:31:48.349Z,67.13
2023-01-17T15:34:34.782Z,67.12
2023-01-17T15:37:08.067Z,68.18
2023-01-17T15:39:37.612Z,69.14
2023-01-17T15:42:07.938Z,69.10
2023-01-17T15:44:47.916Z,70.20
2023-01-17T15:47:38.526Z,70.72
2023-01-17T15:50:27.933Z,71.14
2023-01-17T15:53:00.975Z,70.86
2023-01-17T15:55:38.830Z,71.90
2023-01-17T15:58:23.420Z,72.61
2023-01-17T16:00:49.912Z,72.72
2023-01-17T16:03:19.328Z,72.13
2023-01-17T16:05:48.860Z,71.60
2023-01-17T16:08:16.277Z,72.64
2023-01-17T16:10:44.024Z,73.23
2023-01-17T16:13:12.762Z,73.24
2023-01-17T16:15:42.675Z,73.74
2023-01-17T16:18:23.988Z,73.61
2023-01-17T16:20:59.410Z,75.11
2023-01-17T16:23:26.496Z,74.98
2023-01-17T16:25:53.991Z,75.58
2023-01-17T16:28:20.909Z,76.23
2023-01-17T16:30:48.795Z,77.12
2023-01-17T16:33:15.553Z,76.26
2023-01-17T16:35:44.063Z,76.74
2023-01-17T16:38:12.569Z,76.63
2023-01-17T16:40:41.909Z,77.34
2023-01-17T16:43:11.434Z,76.48
2023-01-17T16:45:53.142Z,75.91
2023-01-17T16:48:20.344Z,76.91
2023-01-17T16:50:50.710Z,78.04
2023-01-17T16:53:24.823Z,78.26
2023-01-17T16:55:56.219Z,77.75
2023-01-17T16:58:23.045Z,78.66
2023-01-17T17:00:50.529Z,77.64
2023-01-17T17:03:18.867Z,78.42
2023-01-17T17:05:47.224Z,77.94
2023-01-17T17:08:15.416Z,79.71
2023-01-17T17:10:41.881Z,78.46
2023-01-17T17:13:08.393Z,78.32
2023-01-17T17:15:34.785Z,80.76
2023-01-17T17:18:01.561Z,80.36
2023-01-17T17:20:28.007Z,79.40
2023-01-17T17:22:54.387Z,80.29
2023-01-17T17:25:20.851Z,80.69
2023-01-17T17:27:47.303Z,80.69
2023-01-17T17:30:14.120Z,81.56
2023-01-17T17:32:40.610Z,81.87
2023-01-17T17:35:07.274Z,82.98
2023-01-17T17:37:34.727Z,82.70
2023-01-17T17:40:01.233Z,81.72
2023-01-17T17:42:27.638Z,82.76
2023-01-17T17:44:54.172Z,81.90
2023-01-17T17:47:20.629Z,81.78
2023-01-17T17:49:47.076Z,81.83
2023-01-17T17:52:13.503Z,81.81
2023-01-17T17:54:40.046Z,82.71
2023-01-17T17:57:07.449Z,82.22
2023-01-17T17:59:33.978Z,82.94
2023-01-17T18:02:00.392Z,82.62
2023-01-17T18:04:27.103Z,81.96
2023-01-17T18:06:57.945Z,81.93
2023-01-17T18:09:25.428Z,81.61
2023-01-17T18:11:51.986Z,82.66
2023-01-17T18:14:21.015Z,83.67
2023-01-17T18:16:47.793Z,83.77
2023-01-17T18:19:17.257Z,84.47
2023-01-17T18:21:43.676Z,84.74
2023-01-17T18:24:13.047Z,83.29
2023-01-17T18:26:45.156Z,84.72
2023-01-17T18:29:17.680Z,84.32
2023-01-17T18:31:45.592Z,85.64
2023-01-17T18:34:14.708Z,85.10
2023-01-17T18:36:41.564Z,85.96
2023-01-17T18:39:24.639Z,85.52
2023-01-17T18:41:51.586Z,84.25
2023-01-17T18:44:21.747Z,85.05
2023-01-17T18:46:48.999Z,85.04
2023-01-17T18:49:18.259Z,84.54
2023-01-17T18:51:50.763Z,84.26
2023-01-17T18:54:18.584Z,83.50
2023-01-17T18:56:45.132Z,84.18
2023-01-17T18:59:13.417Z,83.19
2023-01-17T19:01:43.437Z,84.01
2023-01-17T19:04:11.505Z,83.70
2023-01-17T19:06:40.819Z,84.07
2023-01-17T19:09:08.556Z,84.26
2023-01-17T19:11:36.677Z,84.31
2023-01-17T19:14:03.630Z,85.12
2023-01-17T19:16:34.772Z,85.11
2023-01-17T19:19:04.525Z,84.39
2023-01-17T19:21:31.174Z,85.08
2023-01-17T19:23:57.924Z,84.75
2023-01-17T19:26:26.428Z,84.70
2023-01-17T19:28:55.738Z,85.27
2023-01-17T19:31:24.618Z,85.12
2023-01-17T19:33:53.527Z,85.73
2023-01-17T19:36:23.567Z,85.98
2023-01-17T19:39:03.500Z,85.63
2023-01-17T19:41:32.166Z,86.36
2023-01-17T19:44:01.331Z,86.40
2023-01-17T19:46:28.266Z,86.70
2023-01-17T19:48:56.323Z,86.76
2023-01-17T19:51:24.142Z,87.16
2023-01-17T19:53:50.670Z,88.02
2023-01-17T19:56:19.720Z,87.54
2023-01-17T19:58:47.563Z,88.39
2023-01-17T20:01:17.329Z,88.08
2023-01-17T20:03:44.792Z,87.84
2023-01-17T20:06:13.794Z,89.29
2023-01-17T20:08:40.720Z,88.41
2023-01-17T20:11:21.797Z,88.04
2023-01-17T20:13:51.320Z,88.46
2023-01-17T20:16:18.103Z,90.44
2023-01-17T20:18:45.648Z,89.27
2023-01-17T20:21:14.707Z,89.04
2023-01-17T20:23:42.941Z,90.06
2023-01-17T20:26:11.582Z,90.00
2023-01-17T20:28:40.895Z,89.70
2023-01-17T20:31:17.454Z,89.72
2023-01-17T20:33:45.702Z,90.03
2023-01-17T20:36:14.917Z,90.46
2023-01-17T20:38:45.776Z,90.78
2023-01-17T20:41:33.377Z,90.62
2023-01-17T20:44:01.728Z,89.29
2023-01-17T20:46:31.747Z,89.34
2023-01-17T20:49:00.464Z,89.66
2023-01-17T20:51:28.818Z,89.64
2023-01-17T20:53:57.303Z,88.83
2023-01-17T20:56:25.436Z,89.33
2023-01-17T20:58:54.845Z,89.64
2023-01-17T21:01:24.287Z,89.97
2023-01-17T21:03:53.177Z,89.11
2023-01-17T21:06:24.618Z,89.10
2023-01-17T21:08:52.153Z,88.91
2023-01-17T21:11:21.315Z,89.32
2023-01-17T21:13:51.308Z,88.49
2023-01-17T21:16:20.276Z,88.34
2023-01-17T21:18:50.439Z,88.63
2023-01-17T21:21:21.793Z,88.14
2023-01-17T21:23:49.770Z,89.64
2023-01-17T21:26:18.313Z,89.62
2023-01-17T21:28:46.205Z,88.76
2023-01-17T21:31:35.072Z,88.87
2023-01-17T21:34:04.043Z,90.15
2023-01-17T21:36:33.148Z,89.49
2023-01-17T21:39:04.163Z,89.42
2023-01-17T21:41:34.656Z,89.04
2023-01-17T21:44:10.107Z,89.35
2023-01-17T21:46:38.432Z,89.71
2023-01-17T21:49:05.497Z,89.78
2023-01-17T21:51:50.772Z,88.90
2023-01-17T21:54:17.174Z,89.30
2023-01-17T21:57:02.275Z,88.89
2023-01-17T21:59:31.201Z,89.15
2023-01-17T22:01:58.298Z,89.80
2023-01-17T22:04:25.712Z,90.38
2023-01-17T22:06:52.137Z,90.68
2023-01-17T22:09:18.563Z,90.75
2023-01-17T22:11:44.954Z,90.66
2023-01-17T22:14:11.573Z,90.89
2023-01-17T22:16:37.961Z,90.16
2023-01-17T22:19:04.556Z,90.16
2023-01-17T22:21:31.012Z,89.29
2023-01-17T22:23:59.487Z,89.86
2023-01-17T22:26:28.909Z,89.25
2023-01-17T22:28:56.367Z,89.64
2023-01-17T22:31:25.529Z,89.18
2023-01-17T22:33:58.058Z,88.95
2023-01-17T22:36:25.195Z,88.86
2023-01-17T22:38:51.586Z,89.01
2023-01-17T22:41:20.712Z,90.09
2023-01-17T22:43:50.411Z,89.80
2023-01-17T22:46:19.665Z,89.26
2023-01-17T22:48:46.416Z,89.77
2023-01-17T22:51:15.191Z,90.29
2023-01-17T22:53:43.321Z,91.05
2023-01-17T22:56:15.680Z,91.41
2023-01-17T22:58:44.903Z,91.12
2023-01-17T23:01:23.551Z,91.38
2023-01-17T23:03:53.935Z,91.32
2023-01-17T23:06:23.116Z,90.55
2023-01-17T23:08:51.683Z,90.94
2023-01-17T23:11:40.466Z,91.33
2023-01-17T23:14:12.225Z,91.03
2023-01-17T23:17:03.022Z,91.28
2023-01-17T23:19:33.532Z,91.35
2023-01-17T23:22:16.377Z,91.21
2023-01-17T23:24:58.388Z,92.06
2023-01-17T23:27:46.032Z,91.93
2023-01-17T23:30:14.141Z,91.09
2023-01-17T23:32:47.992Z,91.33
2023-01-17T23:35:15.533Z,91.37
2023-01-17T23:38:00.389Z,92.09
2023-01-17T23:40:27.025Z,92.38
2023-01-17T23:43:11.981Z,91.54
2023-01-17T23:45:39.355Z,91.28
2023-01-17T23:48:09.123Z,91.66
2023-01-17T23:50:37.138Z,91.35
2023-01-17T23:53:09.481Z,91.57
2023-01-17T23:55:40.696Z,91.01
2023-01-17T23:58:08.883Z,91.44
